sensor_id;sensor_type;location;lat;lon;timestamp;P1;durP1;ratioP1;P2;durP2;ratioP2
27666;SDS011;15074;50.940;5.282;2022-10-17T00:00:28;10.95;;;10.02;;
27666;SDS011;15074;50.940;5.282;2022-10-17T00:02:54;11.02;;;10.07;;
27666;SDS011;15074;50.940;5.282;2022-10-17T00:05:20;12.75;;;11.18;;
27666;SDS011;15074;50.940;5.282;2022-10-17T00:07:46;13.57;;;12.48;;
27666;SDS011;15074;50.940;5.282;2022-10-17T00:10:12;11.70;;;10.65;;
27666;SDS011;15074;50.940;5.282;2022-10-17T00:12:37;11.70;;;10.60;;
27666;SDS011;15074;50.940;5.282;2022-10-17T00:15:04;12.30;;;11.30;;
27666;SDS011;15074;50.940;5.282;2022-10-17T00:17:30;14.82;;;12.70;;
27666;SDS011;15074;50.940;5.282;2022-10-17T00:19:57;16.50;;;12.27;;
27666;SDS011;15074;50.940;5.282;2022-10-17T00:22:26;13.98;;;12.18;;
27666;SDS011;15074;50.940;5.282;2022-10-17T00:24:52;12.65;;;11.65;;
27666;SDS011;15074;50.940;5.282;2022-10-17T00:27:17;14.10;;;11.23;;
27666;SDS011;15074;50.940;5.282;2022-10-17T00:29:46;12.82;;;11.77;;
27666;SDS011;15074;50.940;5.282;2022-10-17T00:32:16;12.65;;;11.45;;
27666;SDS011;15074;50.940;5.282;2022-10-17T00:34:42;12.35;;;11.35;;
27666;SDS011;15074;50.940;5.282;2022-10-17T00:37:08;12.25;;;11.02;;
27666;SDS011;15074;50.940;5.282;2022-10-17T00:39:34;12.60;;;11.50;;
27666;SDS011;15074;50.940;5.282;2022-10-17T00:41:59;11.55;;;10.55;;
27666;SDS011;15074;50.940;5.282;2022-10-17T00:46:54;12.00;;;10.70;;
27666;SDS011;15074;50.940;5.282;2022-10-17T00:49:25;11.07;;;10.20;;
27666;SDS011;15074;50.940;5.282;2022-10-17T00:51:55;11.45;;;10.38;;
27666;SDS011;15074;50.940;5.282;2022-10-17T00:54:25;11.18;;;10.15;;
27666;SDS011;15074;50.940;5.282;2022-10-17T00:56:54;12.63;;;11.50;;
27666;SDS011;15074;50.940;5.282;2022-10-17T00:59:20;12.75;;;11.50;;
27666;SDS011;15074;50.940;5.282;2022-10-17T01:01:52;12.95;;;10.95;;
27666;SDS011;15074;50.940;5.282;2022-10-17T01:04:24;12.02;;;11.02;;
27666;SDS011;15074;50.940;5.282;2022-10-17T01:06:50;11.88;;;10.93;;
27666;SDS011;15074;50.940;5.282;2022-10-17T01:09:15;11.40;;;10.50;;
27666;SDS011;15074;50.940;5.282;2022-10-17T01:11:49;11.60;;;10.50;;
27666;SDS011;15074;50.940;5.282;2022-10-17T01:19:59;12.38;;;9.15;;
27666;SDS011;15074;50.940;5.282;2022-10-17T01:30:55;9.40;;;8.35;;
27666;SDS011;15074;50.940;5.282;2022-10-17T01:33:40;9.90;;;8.95;;
27666;SDS011;15074;50.940;5.282;2022-10-17T01:38:59;9.38;;;8.60;;
27666;SDS011;15074;50.940;5.282;2022-10-17T01:41:39;10.38;;;9.13;;
27666;SDS011;15074;50.940;5.282;2022-10-17T01:46:51;9.73;;;8.85;;
27666;SDS011;15074;50.940;5.282;2022-10-17T01:49:23;8.68;;;7.88;;
27666;SDS011;15074;50.940;5.282;2022-10-17T01:52:25;9.45;;;8.38;;
27666;SDS011;15074;50.940;5.282;2022-10-17T01:54:50;8.98;;;8.13;;
27666;SDS011;15074;50.940;5.282;2022-10-17T01:57:31;9.13;;;7.88;;
27666;SDS011;15074;50.940;5.282;2022-10-17T02:00:11;8.23;;;7.50;;
27666;SDS011;15074;50.940;5.282;2022-10-17T02:02:41;7.85;;;7.05;;
27666;SDS011;15074;50.940;5.282;2022-10-17T02:05:08;8.48;;;7.57;;
27666;SDS011;15074;50.940;5.282;2022-10-17T02:07:34;8.20;;;7.38;;
27666;SDS011;15074;50.940;5.282;2022-10-17T02:10:00;7.93;;;7.13;;
27666;SDS011;15074;50.940;5.282;2022-10-17T02:17:59;8.20;;;7.30;;
27666;SDS011;15074;50.940;5.282;2022-10-17T02:20:52;9.30;;;7.05;;
27666;SDS011;15074;50.940;5.282;2022-10-17T02:31:25;7.75;;;7.00;;
27666;SDS011;15074;50.940;5.282;2022-10-17T02:34:00;8.05;;;7.35;;
27666;SDS011;15074;50.940;5.282;2022-10-17T02:36:31;7.40;;;6.75;;
27666;SDS011;15074;50.940;5.282;2022-10-17T02:39:00;7.25;;;6.65;;
27666;SDS011;15074;50.940;5.282;2022-10-17T02:41:28;8.35;;;7.13;;
27666;SDS011;15074;50.940;5.282;2022-10-17T02:43:55;6.82;;;6.15;;
27666;SDS011;15074;50.940;5.282;2022-10-17T02:46:22;8.65;;;7.07;;
27666;SDS011;15074;50.940;5.282;2022-10-17T02:48:52;7.83;;;6.80;;
27666;SDS011;15074;50.940;5.282;2022-10-17T02:56:34;8.18;;;6.60;;
27666;SDS011;15074;50.940;5.282;2022-10-17T02:59:05;7.03;;;6.32;;
27666;SDS011;15074;50.940;5.282;2022-10-17T03:01:32;7.72;;;6.25;;
27666;SDS011;15074;50.940;5.282;2022-10-17T03:04:12;8.80;;;5.90;;
27666;SDS011;15074;50.940;5.282;2022-10-17T03:06:39;6.70;;;6.20;;
27666;SDS011;15074;50.940;5.282;2022-10-17T03:09:05;6.68;;;6.07;;
27666;SDS011;15074;50.940;5.282;2022-10-17T03:11:32;6.63;;;5.97;;
27666;SDS011;15074;50.940;5.282;2022-10-17T03:13:57;6.07;;;5.47;;
27666;SDS011;15074;50.940;5.282;2022-10-17T03:16:23;6.65;;;6.05;;
27666;SDS011;15074;50.940;5.282;2022-10-17T03:18:49;6.10;;;5.60;;
27666;SDS011;15074;50.940;5.282;2022-10-17T03:21:14;7.47;;;6.72;;
27666;SDS011;15074;50.940;5.282;2022-10-17T03:23:40;7.10;;;6.45;;
27666;SDS011;15074;50.940;5.282;2022-10-17T03:26:06;8.15;;;7.20;;
27666;SDS011;15074;50.940;5.282;2022-10-17T03:28:32;7.15;;;6.30;;
27666;SDS011;15074;50.940;5.282;2022-10-17T03:30:58;7.57;;;6.78;;
27666;SDS011;15074;50.940;5.282;2022-10-17T03:33:23;7.00;;;6.40;;
27666;SDS011;15074;50.940;5.282;2022-10-17T03:35:49;7.28;;;6.55;;
27666;SDS011;15074;50.940;5.282;2022-10-17T03:38:14;8.68;;;5.85;;
27666;SDS011;15074;50.940;5.282;2022-10-17T03:40:40;6.85;;;5.97;;
27666;SDS011;15074;50.940;5.282;2022-10-17T03:43:06;9.35;;;6.78;;
27666;SDS011;15074;50.940;5.282;2022-10-17T03:45:32;7.47;;;5.90;;
27666;SDS011;15074;50.940;5.282;2022-10-17T03:47:58;8.27;;;5.63;;
27666;SDS011;15074;50.940;5.282;2022-10-17T03:50:24;8.73;;;5.55;;
27666;SDS011;15074;50.940;5.282;2022-10-17T03:52:49;5.82;;;5.32;;
27666;SDS011;15074;50.940;5.282;2022-10-17T03:55:15;7.72;;;5.35;;
27666;SDS011;15074;50.940;5.282;2022-10-17T03:57:41;8.25;;;6.32;;
27666;SDS011;15074;50.940;5.282;2022-10-17T04:00:07;7.28;;;6.60;;
27666;SDS011;15074;50.940;5.282;2022-10-17T04:02:33;8.20;;;7.25;;
27666;SDS011;15074;50.940;5.282;2022-10-17T04:04:59;7.40;;;6.70;;
27666;SDS011;15074;50.940;5.282;2022-10-17T04:07:25;8.57;;;6.35;;
27666;SDS011;15074;50.940;5.282;2022-10-17T04:09:51;6.13;;;5.53;;
27666;SDS011;15074;50.940;5.282;2022-10-17T04:12:17;6.90;;;6.30;;
27666;SDS011;15074;50.940;5.282;2022-10-17T04:14:42;6.93;;;6.20;;
27666;SDS011;15074;50.940;5.282;2022-10-17T04:17:08;7.68;;;6.97;;
27666;SDS011;15074;50.940;5.282;2022-10-17T04:19:34;7.07;;;6.47;;
27666;SDS011;15074;50.940;5.282;2022-10-17T04:22:00;6.53;;;5.95;;
27666;SDS011;15074;50.940;5.282;2022-10-17T04:24:27;6.07;;;5.57;;
27666;SDS011;15074;50.940;5.282;2022-10-17T04:26:52;9.02;;;6.25;;
27666;SDS011;15074;50.940;5.282;2022-10-17T04:29:19;7.03;;;6.15;;
27666;SDS011;15074;50.940;5.282;2022-10-17T04:31:45;7.43;;;6.35;;
27666;SDS011;15074;50.940;5.282;2022-10-17T04:34:11;8.70;;;6.40;;
27666;SDS011;15074;50.940;5.282;2022-10-17T04:36:38;7.18;;;6.47;;
27666;SDS011;15074;50.940;5.282;2022-10-17T04:39:04;6.80;;;6.22;;
27666;SDS011;15074;50.940;5.282;2022-10-17T04:41:30;6.70;;;5.88;;
27666;SDS011;15074;50.940;5.282;2022-10-17T04:43:56;6.88;;;6.28;;
27666;SDS011;15074;50.940;5.282;2022-10-17T04:46:21;7.10;;;5.53;;
27666;SDS011;15074;50.940;5.282;2022-10-17T04:48:47;6.50;;;5.90;;
27666;SDS011;15074;50.940;5.282;2022-10-17T04:51:14;8.15;;;5.95;;
27666;SDS011;15074;50.940;5.282;2022-10-17T04:53:42;6.57;;;5.97;;
27666;SDS011;15074;50.940;5.282;2022-10-17T04:58:34;7.85;;;6.10;;
27666;SDS011;15074;50.940;5.282;2022-10-17T05:01:04;6.28;;;5.05;;
27666;SDS011;15074;50.940;5.282;2022-10-17T05:03:32;5.75;;;5.15;;
27666;SDS011;15074;50.940;5.282;2022-10-17T05:06:00;5.45;;;4.82;;
27666;SDS011;15074;50.940;5.282;2022-10-17T05:08:28;5.78;;;5.28;;
27666;SDS011;15074;50.940;5.282;2022-10-17T05:10:54;6.72;;;5.93;;
27666;SDS011;15074;50.940;5.282;2022-10-17T05:13:19;8.13;;;5.75;;
27666;SDS011;15074;50.940;5.282;2022-10-17T05:15:45;5.85;;;5.28;;
27666;SDS011;15074;50.940;5.282;2022-10-17T05:18:10;5.47;;;4.70;;
27666;SDS011;15074;50.940;5.282;2022-10-17T05:20:36;10.48;;;5.50;;
27666;SDS011;15074;50.940;5.282;2022-10-17T05:23:02;7.40;;;5.80;;
27666;SDS011;15074;50.940;5.282;2022-10-17T05:25:27;7.18;;;4.95;;
27666;SDS011;15074;50.940;5.282;2022-10-17T05:27:53;5.18;;;4.78;;
27666;SDS011;15074;50.940;5.282;2022-10-17T05:30:18;6.22;;;5.45;;
27666;SDS011;15074;50.940;5.282;2022-10-17T05:32:44;6.22;;;5.63;;
27666;SDS011;15074;50.940;5.282;2022-10-17T05:35:10;7.57;;;5.15;;
27666;SDS011;15074;50.940;5.282;2022-10-17T05:37:36;7.50;;;4.97;;
27666;SDS011;15074;50.940;5.282;2022-10-17T05:40:02;5.65;;;4.55;;
27666;SDS011;15074;50.940;5.282;2022-10-17T05:42:28;9.68;;;4.75;;
27666;SDS011;15074;50.940;5.282;2022-10-17T05:44:53;5.55;;;5.05;;
27666;SDS011;15074;50.940;5.282;2022-10-17T05:47:19;6.43;;;5.25;;
27666;SDS011;15074;50.940;5.282;2022-10-17T05:49:45;7.45;;;5.70;;
27666;SDS011;15074;50.940;5.282;2022-10-17T05:52:10;6.50;;;4.97;;
27666;SDS011;15074;50.940;5.282;2022-10-17T05:54:36;6.78;;;5.05;;
27666;SDS011;15074;50.940;5.282;2022-10-17T05:57:02;5.97;;;5.38;;
27666;SDS011;15074;50.940;5.282;2022-10-17T05:59:28;6.20;;;5.05;;
27666;SDS011;15074;50.940;5.282;2022-10-17T06:01:54;7.13;;;5.20;;
27666;SDS011;15074;50.940;5.282;2022-10-17T06:04:19;9.13;;;5.50;;
27666;SDS011;15074;50.940;5.282;2022-10-17T06:06:45;8.23;;;5.38;;
27666;SDS011;15074;50.940;5.282;2022-10-17T06:09:11;6.63;;;5.32;;
27666;SDS011;15074;50.940;5.282;2022-10-17T06:11:36;7.57;;;5.10;;
27666;SDS011;15074;50.940;5.282;2022-10-17T06:14:02;14.07;;;5.55;;
27666;SDS011;15074;50.940;5.282;2022-10-17T06:16:28;7.35;;;5.15;;
27666;SDS011;15074;50.940;5.282;2022-10-17T06:18:53;5.07;;;4.57;;
27666;SDS011;15074;50.940;5.282;2022-10-17T06:21:20;5.45;;;4.47;;
27666;SDS011;15074;50.940;5.282;2022-10-17T06:23:47;8.15;;;5.35;;
27666;SDS011;15074;50.940;5.282;2022-10-17T06:26:13;10.85;;;5.07;;
27666;SDS011;15074;50.940;5.282;2022-10-17T06:28:39;6.88;;;4.63;;
27666;SDS011;15074;50.940;5.282;2022-10-17T06:31:10;5.40;;;4.78;;
27666;SDS011;15074;50.940;5.282;2022-10-17T06:33:37;5.70;;;4.75;;
27666;SDS011;15074;50.940;5.282;2022-10-17T06:36:04;6.57;;;5.03;;
27666;SDS011;15074;50.940;5.282;2022-10-17T06:38:31;10.80;;;4.75;;
27666;SDS011;15074;50.940;5.282;2022-10-17T06:43:32;7.88;;;4.68;;
27666;SDS011;15074;50.940;5.282;2022-10-17T06:45:58;5.47;;;3.70;;
27666;SDS011;15074;50.940;5.282;2022-10-17T06:48:24;4.88;;;4.05;;
27666;SDS011;15074;50.940;5.282;2022-10-17T06:50:49;10.27;;;4.93;;
27666;SDS011;15074;50.940;5.282;2022-10-17T06:53:15;5.95;;;4.22;;
27666;SDS011;15074;50.940;5.282;2022-10-17T06:55:41;8.10;;;4.05;;
27666;SDS011;15074;50.940;5.282;2022-10-17T06:58:06;5.13;;;3.90;;
27666;SDS011;15074;50.940;5.282;2022-10-17T07:00:32;4.95;;;4.05;;
27666;SDS011;15074;50.940;5.282;2022-10-17T07:02:58;4.05;;;3.65;;
27666;SDS011;15074;50.940;5.282;2022-10-17T07:05:23;4.97;;;4.00;;
27666;SDS011;15074;50.940;5.282;2022-10-17T07:07:49;5.72;;;3.78;;
27666;SDS011;15074;50.940;5.282;2022-10-17T07:10:14;6.60;;;4.20;;
27666;SDS011;15074;50.940;5.282;2022-10-17T07:12:40;6.63;;;4.20;;
27666;SDS011;15074;50.940;5.282;2022-10-17T07:17:34;6.50;;;4.13;;
27666;SDS011;15074;50.940;5.282;2022-10-17T07:19:59;4.25;;;3.75;;
27666;SDS011;15074;50.940;5.282;2022-10-17T07:22:25;3.97;;;2.97;;
27666;SDS011;15074;50.940;5.282;2022-10-17T07:24:51;7.47;;;3.83;;
27666;SDS011;15074;50.940;5.282;2022-10-17T07:27:16;5.80;;;3.63;;
27666;SDS011;15074;50.940;5.282;2022-10-17T07:29:42;4.25;;;2.88;;
27666;SDS011;15074;50.940;5.282;2022-10-17T07:32:07;6.75;;;2.95;;
27666;SDS011;15074;50.940;5.282;2022-10-17T07:34:34;6.65;;;3.40;;
27666;SDS011;15074;50.940;5.282;2022-10-17T07:36:59;4.22;;;3.10;;
27666;SDS011;15074;50.940;5.282;2022-10-17T07:39:26;7.60;;;3.70;;
27666;SDS011;15074;50.940;5.282;2022-10-17T07:41:51;3.78;;;3.42;;
27666;SDS011;15074;50.940;5.282;2022-10-17T07:44:17;4.88;;;3.25;;
27666;SDS011;15074;50.940;5.282;2022-10-17T07:46:43;5.07;;;3.67;;
27666;SDS011;15074;50.940;5.282;2022-10-17T07:49:08;8.98;;;3.75;;
27666;SDS011;15074;50.940;5.282;2022-10-17T07:51:34;4.38;;;3.45;;
27666;SDS011;15074;50.940;5.282;2022-10-17T07:54:00;4.65;;;3.33;;
27666;SDS011;15074;50.940;5.282;2022-10-17T07:56:25;7.30;;;3.40;;
27666;SDS011;15074;50.940;5.282;2022-10-17T07:58:53;6.05;;;3.33;;
27666;SDS011;15074;50.940;5.282;2022-10-17T08:01:19;4.50;;;3.63;;
27666;SDS011;15074;50.940;5.282;2022-10-17T08:03:45;7.55;;;3.83;;
27666;SDS011;15074;50.940;5.282;2022-10-17T08:06:12;6.57;;;3.55;;
27666;SDS011;15074;50.940;5.282;2022-10-17T08:08:39;7.28;;;3.60;;
27666;SDS011;15074;50.940;5.282;2022-10-17T08:11:06;5.60;;;3.92;;
27666;SDS011;15074;50.940;5.282;2022-10-17T08:13:34;4.25;;;3.70;;
27666;SDS011;15074;50.940;5.282;2022-10-17T08:16:02;4.63;;;3.63;;
27666;SDS011;15074;50.940;5.282;2022-10-17T08:18:31;4.00;;;3.63;;
27666;SDS011;15074;50.940;5.282;2022-10-17T08:21:00;4.43;;;3.67;;
27666;SDS011;15074;50.940;5.282;2022-10-17T08:23:32;8.93;;;4.18;;
27666;SDS011;15074;50.940;5.282;2022-10-17T08:25:58;4.30;;;3.25;;
27666;SDS011;15074;50.940;5.282;2022-10-17T08:28:25;5.43;;;3.00;;
27666;SDS011;15074;50.940;5.282;2022-10-17T08:30:51;6.45;;;3.25;;
27666;SDS011;15074;50.940;5.282;2022-10-17T08:33:16;7.60;;;2.85;;
27666;SDS011;15074;50.940;5.282;2022-10-17T08:35:42;5.95;;;3.05;;
27666;SDS011;15074;50.940;5.282;2022-10-17T08:38:07;5.78;;;2.63;;
27666;SDS011;15074;50.940;5.282;2022-10-17T08:40:33;7.57;;;2.70;;
27666;SDS011;15074;50.940;5.282;2022-10-17T08:43:16;6.03;;;2.90;;
27666;SDS011;15074;50.940;5.282;2022-10-17T08:48:13;10.48;;;3.00;;
27666;SDS011;15074;50.940;5.282;2022-10-17T08:50:47;4.00;;;2.92;;
27666;SDS011;15074;50.940;5.282;2022-10-17T08:53:35;4.22;;;3.03;;
27666;SDS011;15074;50.940;5.282;2022-10-17T08:56:32;21.50;;;3.00;;
27666;SDS011;15074;50.940;5.282;2022-10-17T08:59:12;4.22;;;3.42;;
27666;SDS011;15074;50.940;5.282;2022-10-17T09:01:44;4.88;;;3.33;;
27666;SDS011;15074;50.940;5.282;2022-10-17T09:10:53;3.88;;;2.75;;
27666;SDS011;15074;50.940;5.282;2022-10-17T09:21:46;3.97;;;3.20;;
27666;SDS011;15074;50.940;5.282;2022-10-17T09:26:59;3.53;;;3.22;;
27666;SDS011;15074;50.940;5.282;2022-10-17T09:29:27;5.65;;;3.05;;
27666;SDS011;15074;50.940;5.282;2022-10-17T09:32:03;9.63;;;3.10;;
27666;SDS011;15074;50.940;5.282;2022-10-17T09:34:39;5.80;;;3.50;;
27666;SDS011;15074;50.940;5.282;2022-10-17T09:37:05;4.22;;;3.83;;
27666;SDS011;15074;50.940;5.282;2022-10-17T09:39:35;5.70;;;4.82;;
27666;SDS011;15074;50.940;5.282;2022-10-17T09:42:00;10.95;;;4.43;;
27666;SDS011;15074;50.940;5.282;2022-10-17T09:44:34;8.98;;;4.95;;
27666;SDS011;15074;50.940;5.282;2022-10-17T09:50:14;8.07;;;4.60;;
27666;SDS011;15074;50.940;5.282;2022-10-17T09:52:46;9.85;;;5.72;;
27666;SDS011;15074;50.940;5.282;2022-10-17T09:57:55;7.72;;;4.80;;
27666;SDS011;15074;50.940;5.282;2022-10-17T10:00:24;8.23;;;5.30;;
27666;SDS011;15074;50.940;5.282;2022-10-17T10:05:58;8.43;;;5.80;;
27666;SDS011;15074;50.940;5.282;2022-10-17T10:08:30;5.78;;;5.20;;
27666;SDS011;15074;50.940;5.282;2022-10-17T10:10:59;6.65;;;5.70;;
27666;SDS011;15074;50.940;5.282;2022-10-17T10:13:29;6.88;;;5.22;;
27666;SDS011;15074;50.940;5.282;2022-10-17T10:18:37;6.10;;;5.50;;
27666;SDS011;15074;50.940;5.282;2022-10-17T10:21:11;7.43;;;5.25;;
27666;SDS011;15074;50.940;5.282;2022-10-17T10:26:39;6.45;;;4.97;;
27666;SDS011;15074;50.940;5.282;2022-10-17T10:31:46;7.95;;;4.70;;
27666;SDS011;15074;50.940;5.282;2022-10-17T10:36:55;9.85;;;3.88;;
27666;SDS011;15074;50.940;5.282;2022-10-17T10:42:01;4.72;;;3.45;;
27666;SDS011;15074;50.940;5.282;2022-10-17T10:44:30;5.72;;;4.88;;
27666;SDS011;15074;50.940;5.282;2022-10-17T10:49:41;4.90;;;3.47;;
27666;SDS011;15074;50.940;5.282;2022-10-17T10:52:09;4.65;;;4.25;;
27666;SDS011;15074;50.940;5.282;2022-10-17T10:54:45;7.43;;;3.80;;
27666;SDS011;15074;50.940;5.282;2022-10-17T10:57:18;8.32;;;4.05;;
27666;SDS011;15074;50.940;5.282;2022-10-17T10:59:53;6.45;;;3.75;;
27666;SDS011;15074;50.940;5.282;2022-10-17T11:02:35;8.82;;;3.80;;
27666;SDS011;15074;50.940;5.282;2022-10-17T11:08:04;8.07;;;3.65;;
27666;SDS011;15074;50.940;5.282;2022-10-17T11:10:40;5.28;;;3.35;;
27666;SDS011;15074;50.940;5.282;2022-10-17T11:13:18;4.68;;;2.55;;
27666;SDS011;15074;50.940;5.282;2022-10-17T11:19:07;5.97;;;3.20;;
27666;SDS011;15074;50.940;5.282;2022-10-17T11:21:46;4.65;;;2.63;;
27666;SDS011;15074;50.940;5.282;2022-10-17T11:24:22;5.18;;;3.00;;
27666;SDS011;15074;50.940;5.282;2022-10-17T11:26:55;5.82;;;2.97;;
27666;SDS011;15074;50.940;5.282;2022-10-17T11:29:36;4.70;;;2.83;;
27666;SDS011;15074;50.940;5.282;2022-10-17T11:32:14;4.13;;;2.60;;
27666;SDS011;15074;50.940;5.282;2022-10-17T11:34:48;4.20;;;3.20;;
27666;SDS011;15074;50.940;5.282;2022-10-17T11:37:19;4.32;;;2.72;;
27666;SDS011;15074;50.940;5.282;2022-10-17T11:39:53;4.22;;;2.20;;
27666;SDS011;15074;50.940;5.282;2022-10-17T11:42:50;5.80;;;2.78;;
27666;SDS011;15074;50.940;5.282;2022-10-17T11:45:21;5.25;;;2.58;;
27666;SDS011;15074;50.940;5.282;2022-10-17T11:47:54;3.20;;;2.25;;
27666;SDS011;15074;50.940;5.282;2022-10-17T11:50:33;3.35;;;2.33;;
27666;SDS011;15074;50.940;5.282;2022-10-17T11:55:33;5.30;;;2.40;;
27666;SDS011;15074;50.940;5.282;2022-10-17T12:06:34;5.93;;;3.08;;
27666;SDS011;15074;50.940;5.282;2022-10-17T12:09:35;6.88;;;2.78;;
27666;SDS011;15074;50.940;5.282;2022-10-17T12:12:07;5.85;;;2.90;;
27666;SDS011;15074;50.940;5.282;2022-10-17T12:14:45;3.58;;;2.67;;
27666;SDS011;15074;50.940;5.282;2022-10-17T12:17:27;5.22;;;2.78;;
27666;SDS011;15074;50.940;5.282;2022-10-17T12:25:50;5.50;;;3.30;;
27666;SDS011;15074;50.940;5.282;2022-10-17T12:28:30;4.45;;;3.67;;
27666;SDS011;15074;50.940;5.282;2022-10-17T12:39:40;5.43;;;4.05;;
27666;SDS011;15074;50.940;5.282;2022-10-17T12:54:52;7.53;;;6.20;;
27666;SDS011;15074;50.940;5.282;2022-10-17T12:57:26;7.13;;;6.47;;
27666;SDS011;15074;50.940;5.282;2022-10-17T12:59:54;8.73;;;5.20;;
27666;SDS011;15074;50.940;5.282;2022-10-17T13:02:22;7.32;;;5.05;;
27666;SDS011;15074;50.940;5.282;2022-10-17T13:04:53;6.63;;;5.90;;
27666;SDS011;15074;50.940;5.282;2022-10-17T13:07:30;8.20;;;5.90;;
27666;SDS011;15074;50.940;5.282;2022-10-17T13:12:28;10.45;;;5.45;;
27666;SDS011;15074;50.940;5.282;2022-10-17T13:14:56;9.43;;;6.32;;
27666;SDS011;15074;50.940;5.282;2022-10-17T13:17:24;7.95;;;5.50;;
27666;SDS011;15074;50.940;5.282;2022-10-17T13:19:52;6.97;;;6.38;;
27666;SDS011;15074;50.940;5.282;2022-10-17T13:22:20;12.40;;;6.72;;
27666;SDS011;15074;50.940;5.282;2022-10-17T13:24:50;9.88;;;6.40;;
27666;SDS011;15074;50.940;5.282;2022-10-17T13:27:50;10.45;;;6.95;;
27666;SDS011;15074;50.940;5.282;2022-10-17T13:30:23;8.30;;;7.22;;
27666;SDS011;15074;50.940;5.282;2022-10-17T13:32:53;8.80;;;7.60;;
27666;SDS011;15074;50.940;5.282;2022-10-17T13:35:32;7.90;;;6.47;;
27666;SDS011;15074;50.940;5.282;2022-10-17T13:37:59;8.77;;;6.40;;
27666;SDS011;15074;50.940;5.282;2022-10-17T13:40:29;7.43;;;6.72;;
27666;SDS011;15074;50.940;5.282;2022-10-17T13:42:55;8.68;;;6.30;;
27666;SDS011;15074;50.940;5.282;2022-10-17T13:47:48;7.15;;;6.45;;
27666;SDS011;15074;50.940;5.282;2022-10-17T13:50:28;9.50;;;6.60;;
27666;SDS011;15074;50.940;5.282;2022-10-17T13:53:05;7.75;;;6.47;;
27666;SDS011;15074;50.940;5.282;2022-10-17T13:55:31;9.15;;;6.68;;
27666;SDS011;15074;50.940;5.282;2022-10-17T13:58:07;11.15;;;7.30;;
27666;SDS011;15074;50.940;5.282;2022-10-17T14:00:40;12.23;;;7.60;;
27666;SDS011;15074;50.940;5.282;2022-10-17T14:03:06;6.93;;;6.32;;
27666;SDS011;15074;50.940;5.282;2022-10-17T14:05:32;10.52;;;7.15;;
27666;SDS011;15074;50.940;5.282;2022-10-17T14:07:59;8.80;;;7.07;;
27666;SDS011;15074;50.940;5.282;2022-10-17T14:10:31;8.32;;;6.93;;
27666;SDS011;15074;50.940;5.282;2022-10-17T14:12:59;8.95;;;7.18;;
27666;SDS011;15074;50.940;5.282;2022-10-17T14:15:30;10.02;;;6.60;;
27666;SDS011;15074;50.940;5.282;2022-10-17T14:17:59;7.55;;;6.93;;
27666;SDS011;15074;50.940;5.282;2022-10-17T14:20:27;11.65;;;7.38;;
27666;SDS011;15074;50.940;5.282;2022-10-17T14:22:54;8.40;;;7.50;;
27666;SDS011;15074;50.940;5.282;2022-10-17T14:25:30;7.57;;;6.78;;
27666;SDS011;15074;50.940;5.282;2022-10-17T14:30:40;10.18;;;7.15;;
27666;SDS011;15074;50.940;5.282;2022-10-17T14:33:12;9.55;;;7.28;;
27666;SDS011;15074;50.940;5.282;2022-10-17T14:35:53;9.75;;;8.07;;
27666;SDS011;15074;50.940;5.282;2022-10-17T14:38:20;8.80;;;7.63;;
27666;SDS011;15074;50.940;5.282;2022-10-17T14:40:50;9.75;;;8.85;;
27666;SDS011;15074;50.940;5.282;2022-10-17T14:43:21;14.23;;;9.07;;
27666;SDS011;15074;50.940;5.282;2022-10-17T14:45:48;16.52;;;10.00;;
27666;SDS011;15074;50.940;5.282;2022-10-17T14:48:19;10.60;;;9.55;;
27666;SDS011;15074;50.940;5.282;2022-10-17T14:53:31;12.02;;;9.48;;
27666;SDS011;15074;50.940;5.282;2022-10-17T14:55:58;10.32;;;8.95;;
27666;SDS011;15074;50.940;5.282;2022-10-17T14:58:29;9.73;;;8.85;;
27666;SDS011;15074;50.940;5.282;2022-10-17T15:00:57;14.60;;;10.13;;
27666;SDS011;15074;50.940;5.282;2022-10-17T15:03:24;14.05;;;9.57;;
27666;SDS011;15074;50.940;5.282;2022-10-17T15:05:51;10.43;;;9.43;;
27666;SDS011;15074;50.940;5.282;2022-10-17T15:08:19;9.57;;;8.65;;
27666;SDS011;15074;50.940;5.282;2022-10-17T15:10:46;9.00;;;8.03;;
27666;SDS011;15074;50.940;5.282;2022-10-17T15:13:13;9.15;;;8.05;;
27666;SDS011;15074;50.940;5.282;2022-10-17T15:15:40;8.90;;;8.15;;
27666;SDS011;15074;50.940;5.282;2022-10-17T15:18:06;11.48;;;8.45;;
27666;SDS011;15074;50.940;5.282;2022-10-17T15:20:35;13.52;;;8.00;;
27666;SDS011;15074;50.940;5.282;2022-10-17T15:23:01;7.97;;;7.28;;
27666;SDS011;15074;50.940;5.282;2022-10-17T15:25:28;8.60;;;7.85;;
27666;SDS011;15074;50.940;5.282;2022-10-17T15:27:55;9.75;;;8.75;;
27666;SDS011;15074;50.940;5.282;2022-10-17T15:30:28;10.02;;;8.27;;
27666;SDS011;15074;50.940;5.282;2022-10-17T15:32:59;9.20;;;8.40;;
27666;SDS011;15074;50.940;5.282;2022-10-17T15:35:28;8.63;;;7.68;;
27666;SDS011;15074;50.940;5.282;2022-10-17T15:37:54;7.30;;;6.68;;
27666;SDS011;15074;50.940;5.282;2022-10-17T15:40:24;9.35;;;7.75;;
27666;SDS011;15074;50.940;5.282;2022-10-17T15:42:55;7.70;;;7.00;;
27666;SDS011;15074;50.940;5.282;2022-10-17T15:45:21;10.32;;;6.70;;
27666;SDS011;15074;50.940;5.282;2022-10-17T15:47:51;8.52;;;7.18;;
27666;SDS011;15074;50.940;5.282;2022-10-17T15:50:22;7.38;;;6.70;;
27666;SDS011;15074;50.940;5.282;2022-10-17T15:52:48;7.70;;;6.32;;
27666;SDS011;15074;50.940;5.282;2022-10-17T15:55:15;8.13;;;6.80;;
27666;SDS011;15074;50.940;5.282;2022-10-17T15:57:44;7.38;;;6.20;;
27666;SDS011;15074;50.940;5.282;2022-10-17T16:00:15;10.00;;;7.03;;
27666;SDS011;15074;50.940;5.282;2022-10-17T16:02:44;9.32;;;6.30;;
27666;SDS011;15074;50.940;5.282;2022-10-17T16:05:20;8.45;;;5.95;;
27666;SDS011;15074;50.940;5.282;2022-10-17T16:07:47;8.48;;;6.07;;
27666;SDS011;15074;50.940;5.282;2022-10-17T16:10:14;5.93;;;5.15;;
27666;SDS011;15074;50.940;5.282;2022-10-17T16:15:15;6.70;;;5.40;;
27666;SDS011;15074;50.940;5.282;2022-10-17T16:17:50;7.85;;;5.47;;
27666;SDS011;15074;50.940;5.282;2022-10-17T16:20:17;5.70;;;5.18;;
27666;SDS011;15074;50.940;5.282;2022-10-17T16:22:43;8.65;;;5.35;;
27666;SDS011;15074;50.940;5.282;2022-10-17T16:25:18;5.57;;;4.35;;
27666;SDS011;15074;50.940;5.282;2022-10-17T16:27:50;5.93;;;4.78;;
27666;SDS011;15074;50.940;5.282;2022-10-17T16:30:21;9.52;;;5.45;;
27666;SDS011;15074;50.940;5.282;2022-10-17T16:32:48;6.68;;;5.22;;
27666;SDS011;15074;50.940;5.282;2022-10-17T16:35:20;6.18;;;5.10;;
27666;SDS011;15074;50.940;5.282;2022-10-17T16:37:47;5.88;;;5.25;;
27666;SDS011;15074;50.940;5.282;2022-10-17T16:40:14;6.72;;;5.25;;
27666;SDS011;15074;50.940;5.282;2022-10-17T16:42:40;8.98;;;5.45;;
27666;SDS011;15074;50.940;5.282;2022-10-17T16:45:06;6.25;;;4.22;;
27666;SDS011;15074;50.940;5.282;2022-10-17T16:47:33;10.75;;;4.22;;
27666;SDS011;15074;50.940;5.282;2022-10-17T16:49:58;6.85;;;4.90;;
27666;SDS011;15074;50.940;5.282;2022-10-17T16:52:24;4.60;;;4.10;;
27666;SDS011;15074;50.940;5.282;2022-10-17T16:54:50;5.82;;;4.07;;
27666;SDS011;15074;50.940;5.282;2022-10-17T16:57:15;5.45;;;3.58;;
27666;SDS011;15074;50.940;5.282;2022-10-17T16:59:41;5.30;;;3.80;;
27666;SDS011;15074;50.940;5.282;2022-10-17T17:02:08;3.95;;;3.38;;
27666;SDS011;15074;50.940;5.282;2022-10-17T17:04:39;8.20;;;3.42;;
27666;SDS011;15074;50.940;5.282;2022-10-17T17:07:04;6.72;;;3.40;;
27666;SDS011;15074;50.940;5.282;2022-10-17T17:09:30;3.83;;;3.45;;
27666;SDS011;15074;50.940;5.282;2022-10-17T17:11:57;4.97;;;3.75;;
27666;SDS011;15074;50.940;5.282;2022-10-17T17:14:23;4.33;;;3.50;;
27666;SDS011;15074;50.940;5.282;2022-10-17T17:16:49;5.03;;;4.20;;
27666;SDS011;15074;50.940;5.282;2022-10-17T17:19:17;4.22;;;3.50;;
27666;SDS011;15074;50.940;5.282;2022-10-17T17:21:44;3.40;;;2.90;;
27666;SDS011;15074;50.940;5.282;2022-10-17T17:24:17;3.53;;;3.00;;